sensor_id;sensor_type;location;lat;lon;timestamp;P1;durP1;ratioP1;P2;durP2;ratioP2
15216;SDS011;7711;46.634;14.318;2023-09-08T00:02:12;9.20;;;8.20;;
15216;SDS011;7711;46.634;14.318;2023-09-08T00:04:39;9.00;;;8.10;;
15216;SDS011;7711;46.634;14.318;2023-09-08T00:07:06;8.90;;;7.57;;
15216;SDS011;7711;46.634;14.318;2023-09-08T00:09:33;9.70;;;7.70;;
15216;SDS011;7711;46.634;14.318;2023-09-08T00:12:01;10.32;;;8.45;;
15216;SDS011;7711;46.634;14.318;2023-09-08T00:14:28;12.90;;;9.27;;
15216;SDS011;7711;46.634;14.318;2023-09-08T00:16:55;9.82;;;8.25;;
15216;SDS011;7711;46.634;14.318;2023-09-08T00:19:22;9.45;;;7.97;;
15216;SDS011;7711;46.634;14.318;2023-09-08T00:21:49;10.13;;;8.18;;
15216;SDS011;7711;46.634;14.318;2023-09-08T00:24:16;10.60;;;8.70;;
15216;SDS011;7711;46.634;14.318;2023-09-08T00:26:44;9.57;;;8.38;;
15216;SDS011;7711;46.634;14.318;2023-09-08T00:29:13;9.85;;;8.32;;
15216;SDS011;7711;46.634;14.318;2023-09-08T00:31:39;11.32;;;8.48;;
15216;SDS011;7711;46.634;14.318;2023-09-08T00:34:07;9.95;;;8.18;;
15216;SDS011;7711;46.634;14.318;2023-09-08T00:36:34;9.82;;;8.50;;
15216;SDS011;7711;46.634;14.318;2023-09-08T00:39:02;9.70;;;8.57;;
15216;SDS011;7711;46.634;14.318;2023-09-08T00:41:29;10.70;;;9.57;;
15216;SDS011;7711;46.634;14.318;2023-09-08T00:43:56;11.85;;;8.48;;
15216;SDS011;7711;46.634;14.318;2023-09-08T00:46:25;11.93;;;8.70;;
15216;SDS011;7711;46.634;14.318;2023-09-08T00:48:52;13.07;;;9.45;;
15216;SDS011;7711;46.634;14.318;2023-09-08T00:51:19;9.82;;;8.75;;
15216;SDS011;7711;46.634;14.318;2023-09-08T00:53:47;13.20;;;9.27;;
15216;SDS011;7711;46.634;14.318;2023-09-08T00:56:14;12.38;;;8.98;;
15216;SDS011;7711;46.634;14.318;2023-09-08T00:58:41;10.50;;;8.02;;
15216;SDS011;7711;46.634;14.318;2023-09-08T01:01:08;11.52;;;8.48;;
15216;SDS011;7711;46.634;14.318;2023-09-08T01:03:37;13.15;;;8.48;;
15216;SDS011;7711;46.634;14.318;2023-09-08T01:06:04;8.73;;;7.82;;
15216;SDS011;7711;46.634;14.318;2023-09-08T01:08:32;11.50;;;8.57;;
15216;SDS011;7711;46.634;14.318;2023-09-08T01:11:00;13.27;;;8.85;;
15216;SDS011;7711;46.634;14.318;2023-09-08T01:13:27;11.55;;;9.68;;
15216;SDS011;7711;46.634;14.318;2023-09-08T01:15:54;11.60;;;8.77;;
15216;SDS011;7711;46.634;14.318;2023-09-08T01:18:20;9.98;;;8.98;;
15216;SDS011;7711;46.634;14.318;2023-09-08T01:20:53;11.13;;;8.70;;
15216;SDS011;7711;46.634;14.318;2023-09-08T01:23:44;10.18;;;8.75;;
15216;SDS011;7711;46.634;14.318;2023-09-08T01:26:27;10.98;;;8.40;;
15216;SDS011;7711;46.634;14.318;2023-09-08T01:28:57;10.50;;;8.98;;
15216;SDS011;7711;46.634;14.318;2023-09-08T01:31:26;10.13;;;9.13;;
15216;SDS011;7711;46.634;14.318;2023-09-08T01:33:53;13.73;;;8.93;;
15216;SDS011;7711;46.634;14.318;2023-09-08T01:36:21;10.52;;;9.13;;
15216;SDS011;7711;46.634;14.318;2023-09-08T01:38:48;11.40;;;9.67;;
15216;SDS011;7711;46.634;14.318;2023-09-08T01:41:15;10.13;;;9.10;;
15216;SDS011;7711;46.634;14.318;2023-09-08T01:43:43;10.70;;;8.98;;
15216;SDS011;7711;46.634;14.318;2023-09-08T01:46:10;10.70;;;9.57;;
15216;SDS011;7711;46.634;14.318;2023-09-08T01:48:37;13.38;;;9.27;;
15216;SDS011;7711;46.634;14.318;2023-09-08T01:51:04;11.07;;;9.48;;
15216;SDS011;7711;46.634;14.318;2023-09-08T01:53:31;10.90;;;9.40;;
15216;SDS011;7711;46.634;14.318;2023-09-08T01:55:59;12.25;;;9.27;;
15216;SDS011;7711;46.634;14.318;2023-09-08T01:58:26;10.45;;;8.70;;
15216;SDS011;7711;46.634;14.318;2023-09-08T02:00:54;13.73;;;9.53;;
15216;SDS011;7711;46.634;14.318;2023-09-08T02:03:25;10.30;;;8.77;;
15216;SDS011;7711;46.634;14.318;2023-09-08T02:05:52;12.60;;;8.77;;
15216;SDS011;7711;46.634;14.318;2023-09-08T02:08:19;9.83;;;8.87;;
15216;SDS011;7711;46.634;14.318;2023-09-08T02:10:46;9.95;;;8.95;;
15216;SDS011;7711;46.634;14.318;2023-09-08T02:13:13;10.85;;;8.38;;
15216;SDS011;7711;46.634;14.318;2023-09-08T02:15:40;9.53;;;8.43;;
15216;SDS011;7711;46.634;14.318;2023-09-08T02:18:08;11.53;;;8.90;;
15216;SDS011;7711;46.634;14.318;2023-09-08T02:20:35;10.43;;;9.17;;
15216;SDS011;7711;46.634;14.318;2023-09-08T02:23:04;10.77;;;8.73;;
15216;SDS011;7711;46.634;14.318;2023-09-08T02:25:32;10.73;;;9.63;;
15216;SDS011;7711;46.634;14.318;2023-09-08T02:27:59;10.07;;;9.00;;
15216;SDS011;7711;46.634;14.318;2023-09-08T02:30:26;10.47;;;9.23;;
15216;SDS011;7711;46.634;14.318;2023-09-08T02:32:53;10.93;;;9.63;;
15216;SDS011;7711;46.634;14.318;2023-09-08T02:35:21;13.05;;;10.00;;
15216;SDS011;7711;46.634;14.318;2023-09-08T02:37:49;10.90;;;9.80;;
15216;SDS011;7711;46.634;14.318;2023-09-08T02:40:16;10.98;;;9.00;;
15216;SDS011;7711;46.634;14.318;2023-09-08T02:42:44;13.10;;;10.70;;
15216;SDS011;7711;46.634;14.318;2023-09-08T02:45:11;12.87;;;9.50;;
15216;SDS011;7711;46.634;14.318;2023-09-08T02:47:38;10.93;;;9.03;;
15216;SDS011;7711;46.634;14.318;2023-09-08T02:50:05;12.03;;;9.83;;
15216;SDS011;7711;46.634;14.318;2023-09-08T02:52:34;11.07;;;9.90;;
15216;SDS011;7711;46.634;14.318;2023-09-08T02:55:01;12.07;;;9.40;;
15216;SDS011;7711;46.634;14.318;2023-09-08T02:57:28;11.80;;;9.67;;
15216;SDS011;7711;46.634;14.318;2023-09-08T02:59:55;12.97;;;10.13;;
15216;SDS011;7711;46.634;14.318;2023-09-08T03:02:22;11.30;;;10.10;;
15216;SDS011;7711;46.634;14.318;2023-09-08T03:04:50;10.63;;;9.53;;
15216;SDS011;7711;46.634;14.318;2023-09-08T03:07:17;12.37;;;10.40;;
15216;SDS011;7711;46.634;14.318;2023-09-08T03:09:46;10.50;;;9.33;;
15216;SDS011;7711;46.634;14.318;2023-09-08T03:12:13;11.20;;;9.90;;
15216;SDS011;7711;46.634;14.318;2023-09-08T03:14:40;12.83;;;9.80;;
15216;SDS011;7711;46.634;14.318;2023-09-08T03:17:07;11.73;;;9.53;;
15216;SDS011;7711;46.634;14.318;2023-09-08T03:19:34;10.20;;;9.20;;
15216;SDS011;7711;46.634;14.318;2023-09-08T03:22:01;10.60;;;9.50;;
15216;SDS011;7711;46.634;14.318;2023-09-08T03:24:29;11.03;;;9.67;;
15216;SDS011;7711;46.634;14.318;2023-09-08T03:26:57;10.07;;;9.03;;
15216;SDS011;7711;46.634;14.318;2023-09-08T03:29:24;12.23;;;9.40;;
15216;SDS011;7711;46.634;14.318;2023-09-08T03:31:51;13.87;;;9.57;;
15216;SDS011;7711;46.634;14.318;2023-09-08T03:34:18;13.13;;;10.43;;
15216;SDS011;7711;46.634;14.318;2023-09-08T03:36:45;10.87;;;9.77;;
15216;SDS011;7711;46.634;14.318;2023-09-08T03:39:12;10.80;;;9.30;;
15216;SDS011;7711;46.634;14.318;2023-09-08T03:41:39;11.40;;;9.33;;
15216;SDS011;7711;46.634;14.318;2023-09-08T03:44:08;12.33;;;9.60;;
15216;SDS011;7711;46.634;14.318;2023-09-08T03:46:35;13.27;;;10.40;;
15216;SDS011;7711;46.634;14.318;2023-09-08T03:49:02;13.93;;;10.90;;
15216;SDS011;7711;46.634;14.318;2023-09-08T03:51:29;12.37;;;10.17;;
15216;SDS011;7711;46.634;14.318;2023-09-08T03:53:56;12.67;;;9.70;;
15216;SDS011;7711;46.634;14.318;2023-09-08T03:56:23;10.77;;;9.47;;
15216;SDS011;7711;46.634;14.318;2023-09-08T03:58:50;11.45;;;9.95;;
15216;SDS011;7711;46.634;14.318;2023-09-08T04:01:19;11.00;;;9.83;;
15216;SDS011;7711;46.634;14.318;2023-09-08T04:03:46;11.20;;;9.87;;
15216;SDS011;7711;46.634;14.318;2023-09-08T04:06:12;10.47;;;9.47;;
15216;SDS011;7711;46.634;14.318;2023-09-08T04:08:39;12.02;;;10.13;;
15216;SDS011;7711;46.634;14.318;2023-09-08T04:11:06;11.00;;;9.67;;
15216;SDS011;7711;46.634;14.318;2023-09-08T04:13:33;11.10;;;9.43;;
15216;SDS011;7711;46.634;14.318;2023-09-08T04:16:00;10.77;;;9.63;;
15216;SDS011;7711;46.634;14.318;2023-09-08T04:18:29;14.33;;;10.40;;
15216;SDS011;7711;46.634;14.318;2023-09-08T04:20:56;11.10;;;10.00;;
15216;SDS011;7711;46.634;14.318;2023-09-08T04:23:23;12.13;;;9.93;;
15216;SDS011;7711;46.634;14.318;2023-09-08T04:25:50;12.10;;;9.40;;
15216;SDS011;7711;46.634;14.318;2023-09-08T04:28:17;11.30;;;9.70;;
15216;SDS011;7711;46.634;14.318;2023-09-08T04:30:44;12.50;;;10.17;;
15216;SDS011;7711;46.634;14.318;2023-09-08T04:33:11;10.87;;;9.63;;
15216;SDS011;7711;46.634;14.318;2023-09-08T04:35:39;13.33;;;10.27;;
15216;SDS011;7711;46.634;14.318;2023-09-08T04:38:06;11.43;;;10.13;;
15216;SDS011;7711;46.634;14.318;2023-09-08T04:40:34;11.77;;;9.90;;
15216;SDS011;7711;46.634;14.318;2023-09-08T04:43:01;13.93;;;10.70;;
15216;SDS011;7711;46.634;14.318;2023-09-08T04:45:29;11.90;;;9.80;;
15216;SDS011;7711;46.634;14.318;2023-09-08T04:47:56;10.97;;;9.47;;
15216;SDS011;7711;46.634;14.318;2023-09-08T04:50:23;11.87;;;9.63;;
15216;SDS011;7711;46.634;14.318;2023-09-08T04:52:51;12.00;;;9.97;;
15216;SDS011;7711;46.634;14.318;2023-09-08T04:55:18;11.00;;;9.90;;
15216;SDS011;7711;46.634;14.318;2023-09-08T04:57:45;11.57;;;9.67;;
15216;SDS011;7711;46.634;14.318;2023-09-08T05:00:13;12.10;;;8.67;;
15216;SDS011;7711;46.634;14.318;2023-09-08T05:02:40;12.83;;;9.80;;
15216;SDS011;7711;46.634;14.318;2023-09-08T05:05:07;13.10;;;9.93;;
15216;SDS011;7711;46.634;14.318;2023-09-08T05:07:34;12.33;;;8.93;;
15216;SDS011;7711;46.634;14.318;2023-09-08T05:10:03;13.07;;;9.40;;
15216;SDS011;7711;46.634;14.318;2023-09-08T05:12:30;12.53;;;9.50;;
15216;SDS011;7711;46.634;14.318;2023-09-08T05:14:57;12.10;;;10.00;;
15216;SDS011;7711;46.634;14.318;2023-09-08T05:17:31;10.60;;;9.43;;
15216;SDS011;7711;46.634;14.318;2023-09-08T05:19:59;13.63;;;9.87;;
15216;SDS011;7711;46.634;14.318;2023-09-08T05:22:26;16.27;;;9.47;;
15216;SDS011;7711;46.634;14.318;2023-09-08T05:24:53;11.17;;;8.80;;
15216;SDS011;7711;46.634;14.318;2023-09-08T05:27:21;11.63;;;8.80;;
15216;SDS011;7711;46.634;14.318;2023-09-08T05:29:48;12.32;;;9.50;;
15216;SDS011;7711;46.634;14.318;2023-09-08T05:32:15;15.25;;;10.02;;
15216;SDS011;7711;46.634;14.318;2023-09-08T05:34:42;11.97;;;9.70;;
15216;SDS011;7711;46.634;14.318;2023-09-08T05:37:09;11.40;;;9.33;;
15216;SDS011;7711;46.634;14.318;2023-09-08T05:39:36;10.88;;;9.38;;
15216;SDS011;7711;46.634;14.318;2023-09-08T05:42:04;15.02;;;9.75;;
15216;SDS011;7711;46.634;14.318;2023-09-08T05:44:32;18.40;;;10.70;;
15216;SDS011;7711;46.634;14.318;2023-09-08T05:46:59;11.20;;;9.73;;
15216;SDS011;7711;46.634;14.318;2023-09-08T05:49:26;12.40;;;9.67;;
15216;SDS011;7711;46.634;14.318;2023-09-08T05:51:53;11.65;;;10.15;;
15216;SDS011;7711;46.634;14.318;2023-09-08T05:54:21;10.43;;;9.13;;
15216;SDS011;7711;46.634;14.318;2023-09-08T05:56:47;12.50;;;9.07;;
15216;SDS011;7711;46.634;14.318;2023-09-08T05:59:14;13.45;;;9.43;;
15216;SDS011;7711;46.634;14.318;2023-09-08T06:01:43;13.77;;;9.68;;
15216;SDS011;7711;46.634;14.318;2023-09-08T06:04:10;10.43;;;9.23;;
15216;SDS011;7711;46.634;14.318;2023-09-08T06:06:37;10.82;;;9.15;;
15216;SDS011;7711;46.634;14.318;2023-09-08T06:09:04;13.75;;;9.68;;
15216;SDS011;7711;46.634;14.318;2023-09-08T06:11:33;11.98;;;9.98;;
15216;SDS011;7711;46.634;14.318;2023-09-08T06:14:00;10.68;;;9.57;;
15216;SDS011;7711;46.634;14.318;2023-09-08T06:16:27;14.68;;;10.60;;
15216;SDS011;7711;46.634;14.318;2023-09-08T06:18:56;11.98;;;9.75;;
15216;SDS011;7711;46.634;14.318;2023-09-08T06:21:24;14.75;;;10.63;;
15216;SDS011;7711;46.634;14.318;2023-09-08T06:23:50;11.18;;;9.25;;
15216;SDS011;7711;46.634;14.318;2023-09-08T06:26:17;11.63;;;9.48;;
15216;SDS011;7711;46.634;14.318;2023-09-08T06:28:44;13.18;;;9.73;;
15216;SDS011;7711;46.634;14.318;2023-09-08T06:31:11;13.52;;;10.25;;
15216;SDS011;7711;46.634;14.318;2023-09-08T06:33:39;15.13;;;10.57;;
15216;SDS011;7711;46.634;14.318;2023-09-08T06:36:08;14.77;;;10.18;;
15216;SDS011;7711;46.634;14.318;2023-09-08T06:38:35;18.05;;;10.13;;
15216;SDS011;7711;46.634;14.318;2023-09-08T06:41:07;11.35;;;9.35;;
15216;SDS011;7711;46.634;14.318;2023-09-08T06:43:35;13.35;;;9.68;;
15216;SDS011;7711;46.634;14.318;2023-09-08T06:46:02;10.55;;;9.27;;
15216;SDS011;7711;46.634;14.318;2023-09-08T06:48:29;11.75;;;8.95;;
15216;SDS011;7711;46.634;14.318;2023-09-08T06:50:56;12.82;;;8.43;;
15216;SDS011;7711;46.634;14.318;2023-09-08T06:53:25;11.52;;;8.45;;
15216;SDS011;7711;46.634;14.318;2023-09-08T06:55:52;10.25;;;8.70;;
15216;SDS011;7711;46.634;14.318;2023-09-08T06:58:19;10.75;;;8.65;;
15216;SDS011;7711;46.634;14.318;2023-09-08T07:00:46;13.77;;;8.75;;
15216;SDS011;7711;46.634;14.318;2023-09-08T07:03:14;11.75;;;8.68;;
15216;SDS011;7711;46.634;14.318;2023-09-08T07:05:41;9.50;;;8.52;;
15216;SDS011;7711;46.634;14.318;2023-09-08T07:08:09;10.73;;;8.40;;
15216;SDS011;7711;46.634;14.318;2023-09-08T07:10:37;15.48;;;9.15;;
15216;SDS011;7711;46.634;14.318;2023-09-08T07:13:04;10.55;;;8.63;;
15216;SDS011;7711;46.634;14.318;2023-09-08T07:15:31;10.52;;;8.88;;
15216;SDS011;7711;46.634;14.318;2023-09-08T07:17:58;11.82;;;9.20;;
15216;SDS011;7711;46.634;14.318;2023-09-08T07:20:25;10.70;;;7.88;;
15216;SDS011;7711;46.634;14.318;2023-09-08T07:22:52;10.85;;;8.82;;
15216;SDS011;7711;46.634;14.318;2023-09-08T07:25:19;9.65;;;8.10;;
15216;SDS011;7711;46.634;14.318;2023-09-08T07:27:48;10.20;;;8.38;;
15216;SDS011;7711;46.634;14.318;2023-09-08T07:30:17;9.38;;;8.48;;
15216;SDS011;7711;46.634;14.318;2023-09-08T07:32:45;10.13;;;8.50;;
15216;SDS011;7711;46.634;14.318;2023-09-08T07:35:12;11.88;;;8.73;;
15216;SDS011;7711;46.634;14.318;2023-09-08T07:37:41;16.17;;;9.00;;
15216;SDS011;7711;46.634;14.318;2023-09-08T07:40:09;11.30;;;8.55;;
15216;SDS011;7711;46.634;14.318;2023-09-08T07:42:37;10.18;;;8.23;;
15216;SDS011;7711;46.634;14.318;2023-09-08T07:45:06;13.32;;;8.82;;
15216;SDS011;7711;46.634;14.318;2023-09-08T07:47:34;10.93;;;9.40;;
15216;SDS011;7711;46.634;14.318;2023-09-08T07:50:19;9.75;;;8.68;;
15216;SDS011;7711;46.634;14.318;2023-09-08T07:52:47;13.18;;;9.60;;
15216;SDS011;7711;46.634;14.318;2023-09-08T07:55:15;10.85;;;8.68;;
15216;SDS011;7711;46.634;14.318;2023-09-08T07:57:43;11.70;;;8.73;;
15216;SDS011;7711;46.634;14.318;2023-09-08T08:00:13;10.10;;;8.95;;
15216;SDS011;7711;46.634;14.318;2023-09-08T08:02:42;10.48;;;9.05;;
15216;SDS011;7711;46.634;14.318;2023-09-08T08:05:09;11.73;;;9.32;;
15216;SDS011;7711;46.634;14.318;2023-09-08T08:07:37;11.43;;;8.10;;
15216;SDS011;7711;46.634;14.318;2023-09-08T08:10:05;9.82;;;7.97;;
15216;SDS011;7711;46.634;14.318;2023-09-08T08:12:33;9.57;;;8.43;;
15216;SDS011;7711;46.634;14.318;2023-09-08T08:15:00;9.73;;;8.73;;
15216;SDS011;7711;46.634;14.318;2023-09-08T08:17:29;9.48;;;8.48;;
15216;SDS011;7711;46.634;14.318;2023-09-08T08:19:56;9.48;;;8.48;;
15216;SDS011;7711;46.634;14.318;2023-09-08T08:22:24;11.30;;;8.27;;
15216;SDS011;7711;46.634;14.318;2023-09-08T08:24:51;9.43;;;8.32;;
15216;SDS011;7711;46.634;14.318;2023-09-08T08:27:18;13.00;;;8.80;;
15216;SDS011;7711;46.634;14.318;2023-09-08T08:29:45;10.73;;;8.15;;
15216;SDS011;7711;46.634;14.318;2023-09-08T08:32:12;10.80;;;9.43;;
15216;SDS011;7711;46.634;14.318;2023-09-08T08:34:41;14.90;;;9.07;;
15216;SDS011;7711;46.634;14.318;2023-09-08T08:37:08;10.75;;;8.68;;
15216;SDS011;7711;46.634;14.318;2023-09-08T08:39:35;13.32;;;9.73;;
15216;SDS011;7711;46.634;14.318;2023-09-08T08:42:06;11.13;;;8.80;;
15216;SDS011;7711;46.634;14.318;2023-09-08T08:44:34;9.75;;;8.75;;
15216;SDS011;7711;46.634;14.318;2023-09-08T08:47:01;9.98;;;8.77;;
15216;SDS011;7711;46.634;14.318;2023-09-08T08:49:29;11.80;;;8.95;;
15216;SDS011;7711;46.634;14.318;2023-09-08T08:51:59;9.23;;;8.13;;
15216;SDS011;7711;46.634;14.318;2023-09-08T08:54:32;10.98;;;7.85;;
15216;SDS011;7711;46.634;14.318;2023-09-08T08:57:01;9.50;;;8.20;;
15216;SDS011;7711;46.634;14.318;2023-09-08T08:59:28;9.23;;;8.32;;
15216;SDS011;7711;46.634;14.318;2023-09-08T09:01:56;10.50;;;7.55;;
15216;SDS011;7711;46.634;14.318;2023-09-08T09:04:24;11.52;;;8.30;;
15216;SDS011;7711;46.634;14.318;2023-09-08T09:06:52;9.35;;;7.65;;
15216;SDS011;7711;46.634;14.318;2023-09-08T09:09:21;10.07;;;8.20;;
15216;SDS011;7711;46.634;14.318;2023-09-08T09:11:48;9.60;;;7.45;;
15216;SDS011;7711;46.634;14.318;2023-09-08T09:14:15;10.68;;;7.88;;
15216;SDS011;7711;46.634;14.318;2023-09-08T09:16:44;9.40;;;7.88;;
15216;SDS011;7711;46.634;14.318;2023-09-08T09:19:17;7.85;;;7.15;;
15216;SDS011;7711;46.634;14.318;2023-09-08T09:21:50;9.35;;;8.02;;
15216;SDS011;7711;46.634;14.318;2023-09-08T09:24:29;9.70;;;7.82;;
15216;SDS011;7711;46.634;14.318;2023-09-08T09:26:57;10.98;;;7.57;;
15216;SDS011;7711;46.634;14.318;2023-09-08T09:29:25;10.00;;;7.35;;
15216;SDS011;7711;46.634;14.318;2023-09-08T09:31:52;9.00;;;7.50;;
15216;SDS011;7711;46.634;14.318;2023-09-08T09:34:20;11.88;;;7.72;;
15216;SDS011;7711;46.634;14.318;2023-09-08T09:36:48;7.97;;;7.10;;
15216;SDS011;7711;46.634;14.318;2023-09-08T09:39:16;10.82;;;7.85;;
15216;SDS011;7711;46.634;14.318;2023-09-08T09:41:46;11.88;;;7.30;;
15216;SDS011;7711;46.634;14.318;2023-09-08T09:44:13;9.82;;;7.55;;
15216;SDS011;7711;46.634;14.318;2023-09-08T09:46:43;9.57;;;8.30;;
15216;SDS011;7711;46.634;14.318;2023-09-08T09:49:10;8.10;;;7.30;;
15216;SDS011;7711;46.634;14.318;2023-09-08T09:51:40;9.43;;;7.50;;
15216;SDS011;7711;46.634;14.318;2023-09-08T09:54:08;8.98;;;7.57;;
15216;SDS011;7711;46.634;14.318;2023-09-08T09:56:35;9.13;;;7.20;;
15216;SDS011;7711;46.634;14.318;2023-09-08T09:59:06;10.25;;;7.20;;
15216;SDS011;7711;46.634;14.318;2023-09-08T10:01:34;9.23;;;7.40;;
15216;SDS011;7711;46.634;14.318;2023-09-08T10:04:02;8.23;;;7.43;;
15216;SDS011;7711;46.634;14.318;2023-09-08T10:06:30;10.38;;;7.00;;
15216;SDS011;7711;46.634;14.318;2023-09-08T10:08:58;9.80;;;7.20;;
15216;SDS011;7711;46.634;14.318;2023-09-08T10:11:29;9.63;;;7.15;;
15216;SDS011;7711;46.634;14.318;2023-09-08T10:14:00;7.45;;;6.75;;
15216;SDS011;7711;46.634;14.318;2023-09-08T10:16:30;8.95;;;6.97;;
15216;SDS011;7711;46.634;14.318;2023-09-08T10:19:02;8.07;;;7.25;;
15216;SDS011;7711;46.634;14.318;2023-09-08T10:21:33;7.10;;;6.45;;
15216;SDS011;7711;46.634;14.318;2023-09-08T10:24:06;8.10;;;6.68;;
15216;SDS011;7711;46.634;14.318;2023-09-08T10:26:43;8.13;;;6.95;;
15216;SDS011;7711;46.634;14.318;2023-09-08T10:29:13;11.15;;;7.63;;
15216;SDS011;7711;46.634;14.318;2023-09-08T10:31:42;9.82;;;7.18;;
15216;SDS011;7711;46.634;14.318;2023-09-08T10:34:11;8.95;;;7.32;;
15216;SDS011;7711;46.634;14.318;2023-09-08T10:36:38;8.70;;;7.38;;
15216;SDS011;7711;46.634;14.318;2023-09-08T10:39:27;7.93;;;6.88;;
15216;SDS011;7711;46.634;14.318;2023-09-08T10:44:56;11.25;;;6.70;;
15216;SDS011;7711;46.634;14.318;2023-09-08T10:47:34;8.73;;;6.78;;
15216;SDS011;7711;46.634;14.318;2023-09-08T10:50:25;7.82;;;6.68;;
15216;SDS011;7711;46.634;14.318;2023-09-08T10:53:06;10.57;;;7.15;;
15216;SDS011;7711;46.634;14.318;2023-09-08T10:55:36;7.03;;;6.05;;
15216;SDS011;7711;46.634;14.318;2023-09-08T10:58:06;6.93;;;6.32;;
15216;SDS011;7711;46.634;14.318;2023-09-08T11:00:45;10.60;;;6.28;;
15216;SDS011;7711;46.634;14.318;2023-09-08T11:03:14;8.98;;;6.57;;
15216;SDS011;7711;46.634;14.318;2023-09-08T11:05:53;9.77;;;6.30;;
15216;SDS011;7711;46.634;14.318;2023-09-08T11:08:22;9.05;;;6.55;;
15216;SDS011;7711;46.634;14.318;2023-09-08T11:10:49;8.18;;;6.60;;
15216;SDS011;7711;46.634;14.318;2023-09-08T11:13:17;7.82;;;6.93;;
15216;SDS011;7711;46.634;14.318;2023-09-08T11:15:44;7.25;;;6.57;;
15216;SDS011;7711;46.634;14.318;2023-09-08T11:18:11;8.52;;;6.63;;
15216;SDS011;7711;46.634;14.318;2023-09-08T11:20:39;7.13;;;6.43;;
15216;SDS011;7711;46.634;14.318;2023-09-08T11:23:06;8.20;;;6.53;;
15216;SDS011;7711;46.634;14.318;2023-09-08T11:25:33;9.43;;;6.45;;
15216;SDS011;7711;46.634;14.318;2023-09-08T11:28:00;6.20;;;5.60;;
15216;SDS011;7711;46.634;14.318;2023-09-08T11:30:28;6.63;;;5.43;;
15216;SDS011;7711;46.634;14.318;2023-09-08T11:32:55;6.63;;;5.85;;
15216;SDS011;7711;46.634;14.318;2023-09-08T11:35:24;9.85;;;6.35;;
15216;SDS011;7711;46.634;14.318;2023-09-08T11:37:58;6.45;;;5.68;;
15216;SDS011;7711;46.634;14.318;2023-09-08T11:40:27;9.50;;;6.30;;
15216;SDS011;7711;46.634;14.318;2023-09-08T11:42:54;9.73;;;6.00;;
15216;SDS011;7711;46.634;14.318;2023-09-08T11:45:21;6.75;;;6.07;;
15216;SDS011;7711;46.634;14.318;2023-09-08T11:47:49;8.52;;;6.28;;
15216;SDS011;7711;46.634;14.318;2023-09-08T11:50:18;6.32;;;5.72;;
15216;SDS011;7711;46.634;14.318;2023-09-08T11:52:46;7.93;;;5.70;;
15216;SDS011;7711;46.634;14.318;2023-09-08T11:55:16;6.75;;;5.95;;
15216;SDS011;7711;46.634;14.318;2023-09-08T11:57:44;7.10;;;6.07;;
15216;SDS011;7711;46.634;14.318;2023-09-08T12:00:13;7.22;;;5.80;;
15216;SDS011;7711;46.634;14.318;2023-09-08T12:02:43;8.00;;;6.50;;
15216;SDS011;7711;46.634;14.318;2023-09-08T12:05:11;7.68;;;6.72;;
15216;SDS011;7711;46.634;14.318;2023-09-08T12:07:39;9.55;;;6.55;;
15216;SDS011;7711;46.634;14.318;2023-09-08T12:10:07;7.05;;;6.05;;
15216;SDS011;7711;46.634;14.318;2023-09-08T12:12:42;6.72;;;6.13;;
15216;SDS011;7711;46.634;14.318;2023-09-08T12:15:09;6.57;;;5.85;;
15216;SDS011;7711;46.634;14.318;2023-09-08T12:17:46;7.78;;;5.90;;
15216;SDS011;7711;46.634;14.318;2023-09-08T12:20:14;7.47;;;6.57;;
15216;SDS011;7711;46.634;14.318;2023-09-08T12:22:51;8.18;;;5.85;;
15216;SDS011;7711;46.634;14.318;2023-09-08T12:25:18;8.73;;;6.15;;
15216;SDS011;7711;46.634;14.318;2023-09-08T12:27:50;7.68;;;6.35;;
15216;SDS011;7711;46.634;14.318;2023-09-08T12:30:17;8.32;;;6.18;;
15216;SDS011;7711;46.634;14.318;2023-09-08T12:32:46;6.85;;;6.10;;
15216;SDS011;7711;46.634;14.318;2023-09-08T12:35:19;11.13;;;6.40;;
15216;SDS011;7711;46.634;14.318;2023-09-08T12:37:52;8.93;;;5.75;;
15216;SDS011;7711;46.634;14.318;2023-09-08T12:40:26;7.35;;;6.30;;
15216;SDS011;7711;46.634;14.318;2023-09-08T12:42:55;6.20;;;5.53;;
15216;SDS011;7711;46.634;14.318;2023-09-08T12:45:23;14.98;;;6.05;;
15216;SDS011;7711;46.634;14.318;2023-09-08T12:47:51;6.10;;;5.60;;
15216;SDS011;7711;46.634;14.318;2023-09-08T12:50:20;7.53;;;6.13;;
15216;SDS011;7711;46.634;14.318;2023-09-08T12:52:47;7.30;;;6.00;;
15216;SDS011;7711;46.634;14.318;2023-09-08T12:55:13;7.47;;;6.22;;
15216;SDS011;7711;46.634;14.318;2023-09-08T12:57:41;8.27;;;6.15;;
15216;SDS011;7711;46.634;14.318;2023-09-08T13:00:10;7.30;;;6.03;;
15216;SDS011;7711;46.634;14.318;2023-09-08T13:02:38;6.47;;;5.88;;
15216;SDS011;7711;46.634;14.318;2023-09-08T13:05:07;9.95;;;6.70;;
15216;SDS011;7711;46.634;14.318;2023-09-08T13:07:34;8.02;;;6.10;;
15216;SDS011;7711;46.634;14.318;2023-09-08T13:10:02;9.75;;;5.70;;
15216;SDS011;7711;46.634;14.318;2023-09-08T13:12:30;8.27;;;6.07;;
15216;SDS011;7711;46.634;14.318;2023-09-08T13:14:58;6.80;;;5.20;;
15216;SDS011;7711;46.634;14.318;2023-09-08T13:17:27;7.65;;;5.60;;
15216;SDS011;7711;46.634;14.318;2023-09-08T13:19:56;7.35;;;5.65;;
15216;SDS011;7711;46.634;14.318;2023-09-08T13:22:23;8.95;;;5.72;;
15216;SDS011;7711;46.634;14.318;2023-09-08T13:24:51;6.10;;;5.50;;
15216;SDS011;7711;46.634;14.318;2023-09-08T13:27:20;5.90;;;5.40;;
15216;SDS011;7711;46.634;14.318;2023-09-08T13:29:48;6.07;;;5.45;;
15216;SDS011;7711;46.634;14.318;2023-09-08T13:32:16;5.65;;;5.15;;
15216;SDS011;7711;46.634;14.318;2023-09-08T13:34:46;6.93;;;5.40;;
15216;SDS011;7711;46.634;14.318;2023-09-08T13:37:15;7.05;;;5.47;;
15216;SDS011;7711;46.634;14.318;2023-09-08T13:39:43;6.93;;;5.40;;
15216;SDS011;7711;46.634;14.318;2023-09-08T13:42:11;8.02;;;5.68;;
15216;SDS011;7711;46.634;14.318;2023-09-08T13:44:39;5.95;;;4.70;;
15216;SDS011;7711;46.634;14.318;2023-09-08T13:47:08;5.95;;;5.35;;
15216;SDS011;7711;46.634;14.318;2023-09-08T13:49:36;5.95;;;4.85;;
15216;SDS011;7711;46.634;14.318;2023-09-08T13:52:06;5.47;;;4.97;;
15216;SDS011;7711;46.634;14.318;2023-09-08T13:54:35;6.05;;;5.55;;
15216;SDS011;7711;46.634;14.318;2023-09-08T13:57:04;5.72;;;5.22;;
15216;SDS011;7711;46.634;14.318;2023-09-08T13:59:32;5.95;;;5.30;;
15216;SDS011;7711;46.634;14.318;2023-09-08T14:02:00;6.22;;;5.13;;
15216;SDS011;7711;46.634;14.318;2023-09-08T14:04:29;5.63;;;5.13;;
15216;SDS011;7711;46.634;14.318;2023-09-08T14:06:58;7.80;;;5.82;;
15216;SDS011;7711;46.634;14.318;2023-09-08T14:09:28;6.25;;;5.38;;
15216;SDS011;7711;46.634;14.318;2023-09-08T14:11:56;7.15;;;5.55;;
15216;SDS011;7711;46.634;14.318;2023-09-08T14:14:25;5.78;;;5.05;;
15216;SDS011;7711;46.634;14.318;2023-09-08T14:16:53;6.43;;;5.40;;
15216;SDS011;7711;46.634;14.318;2023-09-08T14:19:22;5.78;;;5.18;;
15216;SDS011;7711;46.634;14.318;2023-09-08T14:21:50;5.68;;;4.97;;
15216;SDS011;7711;46.634;14.318;2023-09-08T14:24:19;6.97;;;5.60;;
15216;SDS011;7711;46.634;14.318;2023-09-08T14:26:50;5.47;;;5.03;;
15216;SDS011;7711;46.634;14.318;2023-09-08T14:29:18;6.60;;;5.22;;
15216;SDS011;7711;46.634;14.318;2023-09-08T14:31:48;6.10;;;5.53;;
15216;SDS011;7711;46.634;14.318;2023-09-08T14:34:17;7.57;;;5.70;;
15216;SDS011;7711;46.634;14.318;2023-09-08T14:36:45;5.90;;;5.40;;
15216;SDS011;7711;46.634;14.318;2023-09-08T14:39:15;6.32;;;5.43;;
15216;SDS011;7711;46.634;14.318;2023-09-08T14:41:44;5.80;;;5.10;;
15216;SDS011;7711;46.634;14.318;2023-09-08T14:44:15;6.30;;;5.47;;
15216;SDS011;7711;46.634;14.318;2023-09-08T14:46:44;5.57;;;5.13;;
15216;SDS011;7711;46.634;14.318;2023-09-08T14:49:12;6.43;;;5.20;;